createdAt,value
2019-04-21T00:01:41.472Z,100788.59
2019-04-21T00:04:21.659Z,100788.59
2019-04-21T00:06:58.799Z,100783.00
2019-04-21T00:09:27.718Z,100785.21
2019-04-21T00:11:55.681Z,100787.83
2019-04-21T00:14:16.656Z,100785.32
2019-04-21T00:16:34.696Z,100779.83
2019-04-21T00:19:06.698Z,100779.92
2019-04-21T00:21:34.571Z,100782.95
2019-04-21T00:24:11.305Z,100774.50
2019-04-21T00:26:45.818Z,100778.34
2019-04-21T00:29:16.405Z,100780.08
2019-04-21T00:31:39.339Z,100776.72
2019-04-21T00:33:51.979Z,100770.14
2019-04-21T00:36:26.007Z,100765.19
2019-04-21T00:39:24.400Z,100764.00
2019-04-21T00:41:36.649Z,100767.92
2019-04-21T00:43:59.841Z,100765.46
2019-04-21T00:46:33.676Z,100763.89
2019-04-21T00:48:59.211Z,100766.53
2019-04-21T00:51:40.350Z,100763.13
2019-04-21T00:54:07.038Z,100761.44
2019-04-21T00:56:27.475Z,100765.70
2019-04-21T00:58:59.916Z,100761.10
2019-04-21T01:01:28.040Z,100757.72
2019-04-21T01:03:57.859Z,100750.12
2019-04-21T01:06:26.845Z,100750.58
2019-04-21T01:08:58.240Z,100750.98
2019-04-21T01:11:23.953Z,100760.70
2019-04-21T01:13:51.996Z,100756.48
2019-04-21T01:16:22.365Z,100760.92
2019-04-21T01:18:44.023Z,100760.13
2019-04-21T01:20:54.273Z,100760.17
2019-04-21T01:23:23.400Z,100761.00
2019-04-21T01:26:00.618Z,100761.09
2019-04-21T01:28:35.942Z,100761.61
2019-04-21T01:31:08.802Z,100760.00
2019-04-21T01:33:39.234Z,100758.36
2019-04-21T01:36:06.944Z,100767.38
2019-04-21T01:38:40.099Z,100761.04
2019-04-21T01:41:06.975Z,100763.21
2019-04-21T01:43:27.872Z,100756.42
2019-04-21T01:45:59.631Z,100755.09
2019-04-21T01:48:27.381Z,100756.38
2019-04-21T01:50:55.490Z,100752.52
2019-04-21T01:53:30.809Z,100746.58
2019-04-21T01:55:54.397Z,100747.52
2019-04-21T01:58:19.348Z,100753.13
2019-04-21T02:00:48.525Z,100742.22
2019-04-21T02:03:41.709Z,100733.84
2019-04-21T02:05:54.955Z,100732.20
2019-04-21T02:08:18.218Z,100731.39
2019-04-21T02:10:55.012Z,100732.33
2019-04-21T02:13:12.679Z,100727.23
2019-04-21T02:15:48.968Z,100728.53
2019-04-21T02:18:12.067Z,100731.44
2019-04-21T02:20:32.717Z,100724.59
2019-04-21T02:25:38.394Z,100723.70
2019-04-21T02:28:12.314Z,100724.13
2019-04-21T02:30:57.994Z,100725.82
2019-04-21T02:33:23.298Z,100724.57
2019-04-21T02:40:48.010Z,100722.02
2019-04-21T02:43:13.497Z,100721.13
2019-04-21T02:45:37.850Z,100724.95
2019-04-21T02:48:08.752Z,100721.55
2019-04-21T02:50:47.582Z,100713.53
2019-04-21T02:53:14.027Z,100715.34
2019-04-21T02:55:30.356Z,100711.12
2019-04-21T02:58:06.000Z,100707.30
2019-04-21T03:01:29.139Z,100700.50
2019-04-21T03:05:39.708Z,100698.05
2019-04-21T03:08:09.298Z,100698.08
2019-04-21T03:10:39.237Z,100690.09
2019-04-21T03:13:05.697Z,100687.25
2019-04-21T03:15:29.541Z,100691.12
2019-04-21T03:18:00.305Z,100684.31
2019-04-21T03:20:23.674Z,100685.94
2019-04-21T03:22:58.194Z,100682.60
2019-04-21T03:25:41.562Z,100679.23
2019-04-21T03:28:00.799Z,100681.31
2019-04-21T03:35:46.296Z,100685.11
2019-04-21T03:37:36.958Z,100683.55
2019-04-21T03:40:16.766Z,100679.80
2019-04-21T03:42:38.511Z,100673.50
2019-04-21T03:45:15.054Z,100676.02
2019-04-21T03:47:36.116Z,100668.38
2019-04-21T03:50:19.094Z,100665.38
2019-04-21T03:52:39.345Z,100664.48
2019-04-21T03:55:12.447Z,100671.67
2019-04-21T03:57:49.904Z,100675.06
2019-04-21T04:00:08.961Z,100679.73
2019-04-21T04:02:34.999Z,100675.97
2019-04-21T04:05:07.306Z,100676.03
2019-04-21T04:07:35.587Z,100679.86
2019-04-21T04:10:03.967Z,100681.95
2019-04-21T04:12:18.984Z,100687.06
2019-04-21T04:17:16.970Z,100686.20
2019-04-21T04:19:44.723Z,100683.23
2019-04-21T04:22:22.853Z,100672.64
2019-04-21T04:24:49.365Z,100674.76
2019-04-21T04:27:35.322Z,100670.94
2019-04-21T04:29:40.094Z,100677.64
2019-04-21T04:32:14.577Z,100682.70
2019-04-21T04:37:30.325Z,100684.34
2019-04-21T04:44:46.693Z,100677.16
2019-04-21T04:47:15.546Z,100687.38
2019-04-21T04:49:43.431Z,100680.98
2019-04-21T04:52:31.274Z,100682.61
2019-04-21T04:54:47.244Z,100685.55
2019-04-21T05:02:17.002Z,100679.84
2019-04-21T05:04:35.460Z,100681.41
2019-04-21T05:09:21.448Z,100680.41
2019-04-21T05:16:57.655Z,100685.75
2019-04-21T05:21:40.531Z,100681.53
2019-04-21T05:24:01.259Z,100681.34
2019-04-21T05:26:28.562Z,100676.05
2019-04-21T05:28:56.555Z,100676.13
2019-04-21T05:31:33.063Z,100674.56
2019-04-21T05:34:03.064Z,100679.38
2019-04-21T05:36:29.559Z,100677.34
2019-04-21T05:38:53.465Z,100669.06
2019-04-21T05:41:19.395Z,100674.05
2019-04-21T05:43:56.446Z,100672.55
2019-04-21T05:46:25.389Z,100674.45
2019-04-21T05:48:52.438Z,100675.98
2019-04-21T05:51:18.813Z,100672.30
2019-04-21T05:53:55.747Z,100674.86
2019-04-21T05:56:24.067Z,100675.59
2019-04-21T05:58:57.254Z,100676.09
2019-04-21T06:03:54.941Z,100681.13
2019-04-21T06:06:23.984Z,100680.14
2019-04-21T06:08:46.931Z,100681.39
2019-04-21T06:11:16.068Z,100686.16
2019-04-21T06:13:48.453Z,100685.55
2019-04-21T06:16:07.522Z,100690.56
2019-04-21T06:21:22.013Z,100684.70
2019-04-21T06:23:35.951Z,100680.94
2019-04-21T06:26:25.615Z,100677.82
2019-04-21T06:28:44.072Z,100680.80
2019-04-21T06:31:31.801Z,100679.44
2019-04-21T06:33:35.725Z,100685.30
2019-04-21T06:38:43.242Z,100682.98
2019-04-21T06:40:56.440Z,100679.71
2019-04-21T06:43:38.629Z,100678.81
2019-04-21T06:45:54.377Z,100676.56
2019-04-21T06:48:25.974Z,100677.79
2019-04-21T06:50:52.618Z,100677.67
2019-04-21T06:53:35.987Z,100676.43
2019-04-21T06:55:43.558Z,100671.39
2019-04-21T06:58:18.081Z,100675.79
2019-04-21T07:00:41.308Z,100677.38
2019-04-21T07:03:19.389Z,100685.05
2019-04-21T07:05:50.554Z,100680.42
2019-04-21T07:10:41.563Z,100677.13
2019-04-21T07:13:07.682Z,100677.87
2019-04-21T07:15:37.398Z,100676.55
2019-04-21T07:18:09.015Z,100679.65
2019-04-21T07:20:36.665Z,100673.00
2019-04-21T07:23:05.111Z,100666.55
2019-04-21T07:25:32.822Z,100668.61
2019-04-21T07:28:07.419Z,100665.66
2019-04-21T07:30:31.686Z,100658.68
2019-04-21T07:33:08.940Z,100658.48
2019-04-21T07:35:25.060Z,100659.97
2019-04-21T07:37:53.532Z,100661.53
2019-04-21T07:40:19.913Z,100658.36
2019-04-21T07:42:50.003Z,100657.48
2019-04-21T07:45:13.166Z,100655.44
2019-04-21T07:47:50.729Z,100653.68
2019-04-21T07:50:18.064Z,100655.74
2019-04-21T07:52:49.265Z,100657.61
2019-04-21T07:57:39.725Z,100653.58
2019-04-21T08:02:40.375Z,100651.16
2019-04-21T08:05:13.569Z,100653.50
2019-04-21T08:07:48.028Z,100650.59
2019-04-21T08:10:07.774Z,100645.45
2019-04-21T08:12:30.594Z,100642.46
2019-04-21T08:15:09.654Z,100644.30
2019-04-21T08:17:31.839Z,100641.47
2019-04-21T08:19:53.721Z,100643.91
2019-04-21T08:22:32.120Z,100639.06
2019-04-21T08:24:59.045Z,100633.67
2019-04-21T08:27:25.737Z,100627.64
2019-04-21T08:29:58.164Z,100631.59
2019-04-21T08:32:27.845Z,100629.92
2019-04-21T08:35:04.656Z,100631.91
2019-04-21T08:37:22.703Z,100626.77
2019-04-21T08:39:56.544Z,100623.36
2019-04-21T08:42:18.509Z,100617.41
2019-04-21T08:44:49.347Z,100609.65
2019-04-21T08:47:18.392Z,100608.05
2019-04-21T08:49:45.947Z,100602.58
2019-04-21T08:52:26.070Z,100603.86
2019-04-21T08:54:40.947Z,100596.63
2019-04-21T08:57:16.753Z,100596.05
2019-04-21T08:59:39.057Z,100586.55
2019-04-21T09:02:08.938Z,100594.31
2019-04-21T09:04:33.467Z,100586.55
2019-04-21T09:09:35.334Z,100587.10
2019-04-21T09:12:01.626Z,100580.12
2019-04-21T09:14:33.424Z,100587.77
2019-04-21T09:16:56.394Z,100576.70
2019-04-21T09:19:38.751Z,100571.59
2019-04-21T09:21:57.508Z,100564.39
2019-04-21T09:24:40.820Z,100559.00
2019-04-21T09:26:52.679Z,100560.52
2019-04-21T09:29:10.832Z,100556.78
2019-04-21T09:31:39.162Z,100554.41
2019-04-21T09:34:04.562Z,100561.34
2019-04-21T09:36:38.145Z,100552.09
2019-04-21T09:39:06.635Z,100551.59
2019-04-21T09:41:28.340Z,100551.20
2019-04-21T09:43:57.549Z,100543.73
2019-04-21T09:46:25.463Z,100543.72
2019-04-21T09:48:59.281Z,100547.61
2019-04-21T09:51:21.174Z,100547.34
2019-04-21T09:53:56.484Z,100532.96
2019-04-21T09:56:23.774Z,100531.97
2019-04-21T09:58:49.539Z,100534.30
2019-04-21T10:01:22.825Z,100531.45
2019-04-21T10:03:48.223Z,100527.59
2019-04-21T10:06:12.943Z,100512.74
2019-04-21T10:08:40.241Z,100509.00
2019-04-21T10:11:07.776Z,100509.95
2019-04-21T10:13:36.235Z,100500.23
2019-04-21T10:16:03.337Z,100501.01
2019-04-21T10:18:31.642Z,100495.20
2019-04-21T10:20:59.015Z,100485.39
2019-04-21T10:23:25.956Z,100499.70
2019-04-21T10:25:54.585Z,100481.25
2019-04-21T10:28:21.676Z,100477.74
2019-04-21T10:30:50.953Z,100478.39
2019-04-21T10:33:18.578Z,100470.06
2019-04-21T10:35:46.705Z,100466.63
2019-04-21T10:38:26.128Z,100464.19
2019-04-21T10:40:43.493Z,100460.24
2019-04-21T10:43:12.410Z,100462.38
2019-04-21T10:45:39.262Z,100450.77
2019-04-21T10:48:07.320Z,100447.70
2019-04-21T10:50:34.819Z,100453.98
2019-04-21T10:53:02.911Z,100453.00
2019-04-21T10:55:44.699Z,100451.63
2019-04-21T10:57:59.974Z,100449.19
2019-04-21T11:00:28.130Z,100441.25
2019-04-21T11:02:56.909Z,100440.88
2019-04-21T11:05:24.929Z,100436.84
2019-04-21T11:08:08.080Z,100434.91
2019-04-21T11:10:22.278Z,100431.55
2019-04-21T11:12:50.592Z,100426.80
2019-04-21T11:15:18.952Z,100421.87
2019-04-21T11:17:48.315Z,100419.80
2019-04-21T11:20:15.077Z,100419.14
2019-04-21T11:22:42.086Z,100412.95
2019-04-21T11:25:09.223Z,100409.65
2019-04-21T11:27:37.465Z,100401.69
2019-04-21T11:30:05.372Z,100399.27
2019-04-21T11:32:35.063Z,100403.79
2019-04-21T11:35:03.262Z,100390.88
2019-04-21T11:37:30.528Z,100390.60
2019-04-21T11:40:03.967Z,100391.31
2019-04-21T11:42:27.909Z,100383.35
2019-04-21T11:44:55.364Z,100373.80
2019-04-21T11:47:22.749Z,100375.46
2019-04-21T11:49:50.816Z,100380.03
2019-04-21T11:52:18.738Z,100365.05
2019-04-21T11:54:46.820Z,100372.95
2019-04-21T11:57:20.491Z,100373.09
2019-04-21T11:59:43.773Z,100370.28
2019-04-21T12:02:11.983Z,100363.55
2019-04-21T12:04:39.444Z,100361.55
2019-04-21T12:07:07.222Z,100356.44
2019-04-21T12:09:35.423Z,100352.13
2019-04-21T12:12:03.393Z,100353.98
2019-04-21T12:14:30.497Z,100349.45
2019-04-21T12:16:57.390Z,100345.03
2019-04-21T12:19:25.020Z,100342.85
2019-04-21T12:22:01.160Z,100334.14
2019-04-21T12:24:21.512Z,100334.99
2019-04-21T12:26:49.663Z,100341.78
2019-04-21T12:29:16.780Z,100332.27
2019-04-21T12:31:43.682Z,100327.95
2019-04-21T12:34:12.042Z,100332.19
2019-04-21T12:36:39.960Z,100327.02
2019-04-21T12:39:08.769Z,100318.13
2019-04-21T12:41:38.418Z,100316.84
2019-04-21T12:44:08.787Z,100303.41
2019-04-21T12:46:36.014Z,100304.19
2019-04-21T12:49:04.125Z,100302.82
2019-04-21T12:51:31.521Z,100301.05
2019-04-21T12:53:59.577Z,100298.95
2019-04-21T12:56:27.529Z,100292.34
2019-04-21T12:58:55.346Z,100281.02
2019-04-21T13:01:23.165Z,100295.03
2019-04-21T13:03:52.035Z,100281.64
2019-04-21T13:06:19.455Z,100279.31
2019-04-21T13:08:55.585Z,100280.83
2019-04-21T13:11:15.048Z,100276.30
2019-04-21T13:13:43.884Z,100275.45
2019-04-21T13:16:11.609Z,100271.42
2019-04-21T13:18:39.763Z,100273.86
2019-04-21T13:21:07.230Z,100262.46
2019-04-21T13:23:34.930Z,100262.56
2019-04-21T13:26:04.335Z,100258.17
2019-04-21T13:28:32.529Z,100256.73
2019-04-21T13:31:00.176Z,100256.20
2019-04-21T13:33:29.177Z,100254.03
2019-04-21T13:35:57.237Z,100249.30
2019-04-21T13:38:34.590Z,100242.33
2019-04-21T13:41:10.512Z,100235.22
2019-04-21T13:43:21.474Z,100236.95
2019-04-21T13:45:49.825Z,100237.72
2019-04-21T13:48:16.948Z,100231.67
2019-04-21T13:50:45.168Z,100232.44
2019-04-21T13:53:12.424Z,100233.58
2019-04-21T13:55:40.780Z,100217.21
2019-04-21T13:58:08.539Z,100212.41
2019-04-21T14:00:35.842Z,100216.22
2019-04-21T14:03:02.997Z,100215.41
2019-04-21T14:05:30.664Z,100210.75
2019-04-21T14:07:58.149Z,100203.00
2019-04-21T14:10:25.855Z,100205.84
2019-04-21T14:12:54.229Z,100201.44
2019-04-21T14:15:22.196Z,100202.21
2019-04-21T14:17:50.812Z,100202.06
2019-04-21T14:20:19.250Z,100199.63
2019-04-21T14:22:46.705Z,100193.97
2019-04-21T14:25:15.134Z,100187.05
2019-04-21T14:27:42.241Z,100184.09
2019-04-21T14:30:10.372Z,100181.80
2019-04-21T14:32:38.014Z,100178.63
2019-04-21T14:35:05.353Z,100180.44
2019-04-21T14:37:34.796Z,100169.66
2019-04-21T14:40:08.628Z,100171.92
2019-04-21T14:42:31.875Z,100173.61
2019-04-21T14:45:00.752Z,100176.56
2019-04-21T14:47:29.364Z,100182.02
2019-04-21T14:49:57.437Z,100163.13
2019-04-21T14:52:25.299Z,100170.80
2019-04-21T14:54:52.319Z,100162.97
2019-04-21T14:57:21.031Z,100166.59
2019-04-21T14:59:49.043Z,100165.70
2019-04-21T15:02:16.381Z,100161.91
2019-04-21T15:04:43.941Z,100165.70
2019-04-21T15:07:11.023Z,100168.50
2019-04-21T15:09:39.651Z,100174.44
2019-04-21T15:12:07.950Z,100157.44
2019-04-21T15:14:35.985Z,100153.69
2019-04-21T15:17:03.092Z,100157.03
2019-04-21T15:19:30.811Z,100151.26
2019-04-21T15:21:58.655Z,100153.18
2019-04-21T15:24:26.625Z,100144.73
2019-04-21T15:26:54.788Z,100142.60
2019-04-21T15:29:22.529Z,100144.89
2019-04-21T15:31:50.639Z,100144.89
2019-04-21T15:34:19.550Z,100138.44
2019-04-21T15:36:48.110Z,100143.81
2019-04-21T15:39:16.041Z,100139.17
2019-04-21T15:41:43.256Z,100145.26
2019-04-21T15:44:10.565Z,100139.41
2019-04-21T15:46:37.656Z,100135.78
2019-04-21T15:49:05.071Z,100131.59
2019-04-21T15:51:32.095Z,100132.73
2019-04-21T15:53:58.950Z,100136.01
2019-04-21T15:56:26.847Z,100126.97
2019-04-21T15:58:54.626Z,100121.71
2019-04-21T16:01:22.756Z,100127.36
2019-04-21T16:03:49.824Z,100122.48
2019-04-21T16:06:17.369Z,100118.81
2019-04-21T16:08:47.563Z,100118.69
2019-04-21T16:11:13.652Z,100109.25
2019-04-21T16:13:41.667Z,100112.77
2019-04-21T16:16:10.477Z,100110.94
2019-04-21T16:18:38.405Z,100104.92
2019-04-21T16:21:06.121Z,100107.35
2019-04-21T16:23:33.279Z,100108.35
2019-04-21T16:26:02.630Z,100100.15
2019-04-21T16:28:31.080Z,100096.51
2019-04-21T16:30:58.580Z,100094.77
2019-04-21T16:33:27.061Z,100094.62
2019-04-21T16:35:56.012Z,100099.38
2019-04-21T16:38:23.655Z,100091.19
2019-04-21T16:40:57.447Z,100098.64
2019-04-21T16:43:19.992Z,100096.19
2019-04-21T16:45:48.697Z,100093.92
2019-04-21T16:48:16.963Z,100086.41
2019-04-21T16:50:45.675Z,100092.23
2019-04-21T16:53:14.276Z,100087.02
2019-04-21T16:55:41.508Z,100088.23
2019-04-21T16:58:14.636Z,100082.31
2019-04-21T17:00:44.133Z,100081.16
2019-04-21T17:03:06.374Z,100082.84
2019-04-21T17:05:34.252Z,100075.33
2019-04-21T17:08:03.957Z,100077.14
2019-04-21T17:10:31.065Z,100071.45
2019-04-21T17:12:58.005Z,100073.72
2019-04-21T17:15:42.063Z,100066.66
2019-04-21T17:18:18.278Z,100073.12
2019-04-21T17:20:34.191Z,100072.14
2019-04-21T17:22:51.695Z,100068.42
2019-04-21T17:25:21.527Z,100068.94
2019-04-21T17:27:47.244Z,100064.07
2019-04-21T17:30:15.186Z,100069.31
2019-04-21T17:32:47.664Z,100064.30
2019-04-21T17:35:12.134Z,100069.17
2019-04-21T17:37:40.431Z,100070.14
2019-04-21T17:40:09.072Z,100064.90
2019-04-21T17:42:44.899Z,100068.48
2019-04-21T17:45:05.488Z,100065.90
2019-04-21T17:47:43.321Z,100065.21
2019-04-21T17:50:03.159Z,100065.88
2019-04-21T17:52:35.293Z,100064.30
2019-04-21T17:55:07.599Z,100066.03
2019-04-21T17:57:48.822Z,100061.72
2019-04-21T18:00:23.766Z,100064.75
2019-04-21T18:02:50.187Z,100064.83
2019-04-21T18:05:19.486Z,100065.30
2019-04-21T18:07:46.407Z,100063.39
2019-04-21T18:10:07.627Z,100065.13
2019-04-21T18:12:39.756Z,100064.20
2019-04-21T18:14:56.748Z,100067.70
2019-04-21T18:17:18.687Z,100068.16
2019-04-21T18:19:49.149Z,100063.91
2019-04-21T18:22:15.206Z,100069.52
2019-04-21T18:24:51.752Z,100069.15
2019-04-21T18:27:11.560Z,100070.48
2019-04-21T18:29:40.022Z,100063.63
2019-04-21T18:32:08.442Z,100068.94
2019-04-21T18:34:44.019Z,100067.87
2019-04-21T18:37:12.516Z,100069.84
2019-04-21T18:39:46.340Z,100065.05
2019-04-21T18:42:22.646Z,100065.42
2019-04-21T18:44:58.277Z,100065.72
2019-04-21T18:47:19.870Z,100064.69
2019-04-21T18:49:28.844Z,100070.53
2019-04-21T18:52:03.986Z,100067.00
2019-04-21T18:54:41.347Z,100069.49
2019-04-21T18:57:04.462Z,100072.06
2019-04-21T18:59:33.947Z,100070.35
2019-04-21T19:01:58.578Z,100065.35
2019-04-21T19:04:24.742Z,100068.99
2019-04-21T19:07:02.748Z,100071.06
2019-04-21T19:09:47.558Z,100075.33
2019-04-21T19:12:10.189Z,100079.47
2019-04-21T19:22:00.105Z,100069.63
2019-04-21T19:24:29.093Z,100072.68
2019-04-21T19:26:58.759Z,100073.77
2019-04-21T19:32:00.013Z,100071.58
2019-04-21T19:34:12.890Z,100072.94
2019-04-21T19:36:33.159Z,100070.15
2019-04-21T19:39:09.349Z,100067.39
2019-04-21T19:41:48.620Z,100064.61
2019-04-21T19:44:17.201Z,100060.94
2019-04-21T19:46:42.373Z,100063.64
2019-04-21T19:49:21.144Z,100060.04
2019-04-21T19:51:42.830Z,100062.02
2019-04-21T19:54:05.894Z,100065.69
2019-04-21T19:56:25.852Z,100066.97
2019-04-21T19:58:53.298Z,100066.38
2019-04-21T20:01:21.383Z,100058.22
2019-04-21T20:03:53.978Z,100056.88
2019-04-21T20:06:33.084Z,100060.80
2019-04-21T20:09:04.379Z,100055.78
2019-04-21T20:11:30.580Z,100061.83
2019-04-21T20:14:28.323Z,100058.53
2019-04-21T20:16:33.947Z,100053.11
2019-04-21T20:18:46.993Z,100050.59
2019-04-21T20:21:10.127Z,100049.31
2019-04-21T20:23:41.047Z,100052.12
2019-04-21T20:26:08.574Z,100051.03
2019-04-21T20:28:51.719Z,100054.28
2019-04-21T20:31:23.598Z,100053.23
2019-04-21T20:34:00.160Z,100057.21
2019-04-21T20:36:21.132Z,100058.27
2019-04-21T20:38:42.115Z,100053.72
2019-04-21T20:41:15.945Z,100053.48
2019-04-21T20:43:47.262Z,100051.15
2019-04-21T20:46:12.555Z,100052.23
2019-04-21T20:48:43.892Z,100054.97
2019-04-21T20:51:14.591Z,100054.30
2019-04-21T20:53:34.251Z,100057.47
2019-04-21T20:56:05.020Z,100064.13
2019-04-21T20:58:37.337Z,100063.61
2019-04-21T21:01:25.435Z,100061.70
2019-04-21T21:03:34.831Z,100065.37
2019-04-21T21:05:58.133Z,100066.91
2019-04-21T21:08:36.001Z,100059.22
2019-04-21T21:10:58.716Z,100064.52
2019-04-21T21:13:33.420Z,100058.76
2019-04-21T21:16:10.252Z,100060.64
2019-04-21T21:18:48.712Z,100065.27
2019-04-21T21:20:59.129Z,100064.74
2019-04-21T21:23:23.398Z,100058.11
2019-04-21T21:25:57.295Z,100058.59
2019-04-21T21:28:22.611Z,100057.93
2019-04-21T21:30:42.893Z,100062.68
2019-04-21T21:33:21.723Z,100062.27
2019-04-21T21:35:41.049Z,100060.24
2019-04-21T21:38:22.364Z,100064.25
2019-04-21T21:40:45.492Z,100068.41
2019-04-21T21:43:01.624Z,100054.08
2019-04-21T21:45:30.399Z,100062.31
2019-04-21T21:48:16.052Z,100057.45
2019-04-21T21:50:31.596Z,100054.94
2019-04-21T21:53:02.176Z,100050.28
2019-04-21T21:55:21.491Z,100048.15
2019-04-21T21:57:52.914Z,100043.17
2019-04-21T22:00:17.907Z,100048.41
2019-04-21T22:02:51.714Z,100045.62
2019-04-21T22:05:23.645Z,100047.91
2019-04-21T22:07:46.588Z,100045.83
2019-04-21T22:10:13.597Z,100036.06
2019-04-21T22:12:52.896Z,100036.52
2019-04-21T22:15:17.320Z,100038.29
2019-04-21T22:17:55.926Z,100041.05
2019-04-21T22:20:28.491Z,100038.54
2019-04-21T22:22:46.211Z,100032.63
2019-04-21T22:25:12.063Z,100037.95
2019-04-21T22:27:32.844Z,100037.58
2019-04-21T22:30:03.931Z,100036.40
2019-04-21T22:32:30.901Z,100027.00
2019-04-21T22:35:01.966Z,100024.07
2019-04-21T22:37:39.150Z,100025.98
2019-04-21T22:40:11.329Z,100024.74
2019-04-21T22:42:29.652Z,100026.02
2019-04-21T22:44:54.406Z,100024.27
2019-04-21T22:47:26.975Z,100020.75
2019-04-21T22:49:50.676Z,100023.84
2019-04-21T22:52:20.960Z,100020.09
2019-04-21T22:54:47.288Z,100026.11
2019-04-21T22:57:20.915Z,100027.39
2019-04-21T22:59:45.394Z,100027.45
2019-04-21T23:02:17.639Z,100029.77
2019-04-21T23:04:46.218Z,100032.56
2019-04-21T23:07:13.518Z,100032.66
2019-04-21T23:09:38.053Z,100027.53
2019-04-21T23:12:05.069Z,100032.23
2019-04-21T23:14:45.322Z,100025.03
2019-04-21T23:17:23.936Z,100025.70
2019-04-21T23:19:42.235Z,100026.29
2019-04-21T23:22:20.380Z,100028.48
2019-04-21T23:24:59.217Z,100029.38
2019-04-21T23:27:11.657Z,100025.63
2019-04-21T23:29:52.651Z,100024.53
2019-04-21T23:32:11.975Z,100025.00
2019-04-21T23:34:26.860Z,100024.20
2019-04-21T23:36:57.642Z,100022.16
2019-04-21T23:39:23.628Z,100022.72
2019-04-21T23:41:52.871Z,100020.63
2019-04-21T23:44:20.164Z,100020.33
2019-04-21T23:46:45.909Z,100014.91
2019-04-21T23:49:30.632Z,100016.20
2019-04-21T23:51:50.519Z,100019.19
2019-04-21T23:54:13.352Z,100006.52
2019-04-21T23:56:43.983Z,100009.51
2019-04-21T23:59:13.203Z,100002.69
